This is the latest recevied weather packets stored in our database for station/object vk4zu-13. If no packets are shown the sender has not sent any weather packets the latest 10 day(s).
| Time | Temp. | Humidity | Pressure | Rain* | Wind** | Luminosity | Snow |
|---|---|---|---|---|---|---|---|
| 1788136170 | 71° F | 58% | 772.1 mmHg | 0 in | - | 178 W/m² | - |
| 1788135325 | 72° F | 57% | 772.2 mmHg | 0 in | - | 178 W/m² | - |
| 1788134403 | 73° F | 56% | 772.3 mmHg | 0 in | - | 104 W/m² | - |
| 1788133434 | 72° F | 57% | 772.3 mmHg | 0 in | - | 656 W/m² | - |
| 1788132540 | 70° F | 63% | 772.3 mmHg | 0 in | - | 622 W/m² | - |
| 1788131615 | 70° F | 62% | 772.3 mmHg | 0 in | - | 577 W/m² | - |
| 1788130711 | 69° F | 63% | 772.3 mmHg | 0 in | - | 540 W/m² | - |
| 1788129814 | 67° F | 65% | 772.3 mmHg | 0 in | - | 492 W/m² | - |
| 1788128893 | 65° F | 75% | 772.3 mmHg | 0 in | - | 445 W/m² | - |
| 1788127988 | 62° F | 79% | 772.2 mmHg | 0 in | - | 396 W/m² | - |
| 1788127092 | 60° F | 82% | 772.3 mmHg | 0 in | - | 332 W/m² | - |
| 1788126181 | 57° F | 87% | 772.3 mmHg | 0 in | - | 264 W/m² | - |
| 1788125283 | 53° F | 91% | 772.2 mmHg | 0 in | - | 162 W/m² | - |
| 1788124362 | 51° F | 89% | 772.1 mmHg | 0 in | - | 28 W/m² | - |
| 1788123464 | 51° F | 88% | 772 mmHg | 0 in | - | 25 W/m² | - |
| 1788122558 | 51° F | 88% | 772 mmHg | 0 in | - | 19 W/m² | - |
| 1788121661 | 51° F | 87% | 771.9 mmHg | 0 in | - | 12 W/m² | - |
| 1788120752 | 52° F | 87% | 771.8 mmHg | 0 in | - | 7 W/m² | - |
| 1788119853 | 52° F | 87% | 771.6 mmHg | 0 in | - | 0 W/m² | - |
| 1788118954 | 53° F | 87% | 771.4 mmHg | 0 in | - | 0 W/m² | - |
| 1788118055 | 54° F | 88% | 771.4 mmHg | 0 in | - | 0 W/m² | - |
| 1788117141 | 54° F | 88% | 771.1 mmHg | 0 in | - | 0 W/m² | - |
| 1788116236 | 53° F | 87% | 771.1 mmHg | 0 in | - | 0 W/m² | - |
| 1788115329 | 53° F | 87% | 771.1 mmHg | 0 in | - | 0 W/m² | - |
| 1788114493 | 53° F | 86% | 771 mmHg | 0 in | - | 0 W/m² | - |
* Rain latest hour (hover to see other rain measurements)
** Current wind speed in m/s (hover to see current wind gust speed)